Holmes Reef, Australia
Current Conditions -  °F | °C
As of 9:00 AM on Friday 28 Nov 2014 (Local Time) from YBCS Reporting Station
Few Clouds Few Clouds  
Wind Chill: 82°   Ceiling: Unl
Heat Index: 85°   Visibility: 6mi
Dew Point: 68°   Wind: 10mph
Humidity: 62%   Direction: 170°S
Pressure: 29.88"   Gusts: NA
Location:  16.47°S, 147.87°E
Report Text: YBCS 272300Z 17009KT 9999 FEW026 28/20 Q1012
Loading
Personal Weather Stations






























Interactive Weather Map New forecast layout! Learn more

10-Day Weather Forecast

Advertisements
Track Severe Weather on mobile